createdAt,value
2024-01-27T00:01:28.594Z,27.10
2024-01-27T00:03:56.745Z,7.00
2024-01-27T00:06:24.937Z,25.90
2024-01-27T00:08:53.074Z,27.50
2024-01-27T00:11:22.683Z,24.00
2024-01-27T00:13:52.070Z,28.40
2024-01-27T00:16:20.534Z,26.30
2024-01-27T00:18:48.674Z,24.70
2024-01-27T00:21:16.733Z,22.50
2024-01-27T00:23:44.971Z,17.10
2024-01-27T00:26:13.180Z,21.90
2024-01-27T00:28:41.294Z,20.00
2024-01-27T00:31:09.449Z,20.70
2024-01-27T00:33:37.731Z,20.80
2024-01-27T00:36:06.590Z,17.60
2024-01-27T00:38:34.711Z,19.30
2024-01-27T00:41:02.882Z,16.70
2024-01-27T00:43:30.996Z,18.40
2024-01-27T00:45:59.102Z,20.50
2024-01-27T00:48:27.312Z,20.00
2024-01-27T00:50:55.523Z,22.10
2024-01-27T00:53:23.595Z,28.30
2024-01-27T00:55:51.868Z,26.10
2024-01-27T00:58:20.008Z,31.50
2024-01-27T01:00:48.290Z,31.70
2024-01-27T01:03:16.491Z,31.10
2024-01-27T01:05:44.739Z,32.60
2024-01-27T01:08:12.888Z,23.50
2024-01-27T01:10:41.040Z,22.90
2024-01-27T01:13:09.132Z,19.70
2024-01-27T01:15:37.297Z,22.60
2024-01-27T01:18:05.931Z,18.40
2024-01-27T01:20:34.036Z,18.20
2024-01-27T01:23:02.131Z,17.20
2024-01-27T01:25:30.284Z,16.80
2024-01-27T01:27:58.340Z,18.20
2024-01-27T01:30:26.408Z,5.70
2024-01-27T01:32:54.910Z,6.10
2024-01-27T01:35:23.131Z,18.60
2024-01-27T01:37:51.508Z,19.00
2024-01-27T01:40:19.694Z,19.20
2024-01-27T01:42:54.023Z,20.40
2024-01-27T01:45:22.145Z,21.20
2024-01-27T01:47:50.689Z,22.30
2024-01-27T01:50:19.242Z,19.90
2024-01-27T01:52:50.325Z,22.60
2024-01-27T01:55:18.500Z,16.80
2024-01-27T01:57:47.958Z,19.30
2024-01-27T02:00:16.670Z,18.90
2024-01-27T02:02:48.492Z,17.60
2024-01-27T02:05:16.788Z,18.80
2024-01-27T02:07:44.864Z,18.90
2024-01-27T02:10:17.606Z,19.10
2024-01-27T02:12:46.654Z,18.60
2024-01-27T02:15:15.447Z,19.30
2024-01-27T02:17:44.000Z,19.60
2024-01-27T02:20:12.227Z,16.60
2024-01-27T02:22:40.437Z,16.90
2024-01-27T02:25:08.942Z,16.20
2024-01-27T02:27:37.203Z,16.60
2024-01-27T02:30:05.870Z,18.90
2024-01-27T02:32:34.012Z,19.10
2024-01-27T02:35:02.297Z,24.10
2024-01-27T02:37:30.473Z,19.00
2024-01-27T02:39:58.624Z,19.40
2024-01-27T02:42:26.780Z,17.00
2024-01-27T02:44:55.065Z,20.60
2024-01-27T02:47:23.323Z,19.20
2024-01-27T02:49:51.600Z,18.90
2024-01-27T02:52:19.942Z,19.30
2024-01-27T02:54:48.221Z,18.80
2024-01-27T02:57:18.397Z,20.60
2024-01-27T02:59:47.714Z,17.90
2024-01-27T03:02:16.084Z,19.20
2024-01-27T03:04:44.206Z,18.60
2024-01-27T03:07:12.372Z,18.90
2024-01-27T03:09:40.593Z,19.10
2024-01-27T03:12:09.163Z,17.60
2024-01-27T03:14:37.362Z,17.60
2024-01-27T03:17:05.479Z,17.70
2024-01-27T03:19:33.672Z,16.90
2024-01-27T03:22:01.996Z,17.80
2024-01-27T03:24:30.125Z,14.90
2024-01-27T03:26:58.352Z,18.80
2024-01-27T03:29:26.432Z,19.80
2024-01-27T03:31:54.558Z,18.70
2024-01-27T03:34:26.557Z,22.60
2024-01-27T03:36:54.919Z,21.50
2024-01-27T03:39:23.593Z,21.90
2024-01-27T03:41:51.870Z,19.70
2024-01-27T03:44:20.114Z,22.50
2024-01-27T03:46:49.739Z,23.20
2024-01-27T03:49:17.921Z,23.80
2024-01-27T03:51:46.030Z,22.60
2024-01-27T03:54:14.206Z,21.80
2024-01-27T03:56:43.091Z,20.20
2024-01-27T03:59:12.747Z,22.10
2024-01-27T04:01:40.843Z,21.60
2024-01-27T04:04:08.984Z,21.60
2024-01-27T04:06:39.658Z,18.00
2024-01-27T04:09:11.275Z,19.00
2024-01-27T04:11:40.134Z,17.40
2024-01-27T04:14:08.400Z,4.80
2024-01-27T04:16:36.419Z,19.60
2024-01-27T04:19:04.708Z,14.60
2024-01-27T04:21:33.104Z,13.40
2024-01-27T04:24:01.310Z,13.10
2024-01-27T04:26:29.530Z,14.50
2024-01-27T04:28:57.879Z,16.00
2024-01-27T04:31:26.027Z,15.10
2024-01-27T04:34:12.708Z,13.00
2024-01-27T04:36:41.113Z,16.30
2024-01-27T04:39:09.407Z,16.30
2024-01-27T04:41:44.106Z,13.20
2024-01-27T04:44:12.466Z,14.90
2024-01-27T04:46:40.569Z,13.50
2024-01-27T04:49:08.754Z,14.90
2024-01-27T04:51:36.954Z,14.50
2024-01-27T04:54:05.139Z,14.80
2024-01-27T04:56:33.290Z,16.50
2024-01-27T04:59:01.434Z,16.10
2024-01-27T05:01:29.615Z,19.10
2024-01-27T05:03:57.834Z,16.30
2024-01-27T05:06:26.130Z,18.70
2024-01-27T05:08:54.324Z,17.50
2024-01-27T05:11:33.545Z,13.70
2024-01-27T05:14:01.976Z,15.10
2024-01-27T05:16:30.188Z,14.90
2024-01-27T05:18:58.347Z,13.00
2024-01-27T05:21:26.577Z,14.40
2024-01-27T05:23:56.133Z,14.40
2024-01-27T05:26:24.379Z,12.00
2024-01-27T05:28:52.458Z,15.60
2024-01-27T05:31:20.607Z,12.60
2024-01-27T05:33:48.874Z,14.70
2024-01-27T05:36:17.709Z,11.80
2024-01-27T05:38:45.865Z,15.30
2024-01-27T05:41:13.995Z,16.00
2024-01-27T05:43:42.068Z,17.80
2024-01-27T05:46:11.533Z,12.00
2024-01-27T05:48:39.907Z,11.40
2024-01-27T05:51:08.864Z,12.80
2024-01-27T05:53:37.935Z,10.50
2024-01-27T05:56:06.289Z,12.40
2024-01-27T05:58:34.653Z,13.10
2024-01-27T06:01:02.848Z,14.40
2024-01-27T06:03:32.711Z,19.80
2024-01-27T06:06:00.922Z,9.90
2024-01-27T06:08:29.096Z,9.80
2024-01-27T06:10:57.244Z,9.70
2024-01-27T06:13:25.504Z,9.00
2024-01-27T06:15:53.754Z,9.70
2024-01-27T06:18:21.987Z,8.00
2024-01-27T06:20:50.276Z,9.60
2024-01-27T06:23:18.501Z,10.60
2024-01-27T06:25:46.610Z,10.00
2024-01-27T06:28:14.656Z,10.00
2024-01-27T06:30:43.469Z,12.20
2024-01-27T06:33:11.745Z,9.60
2024-01-27T06:35:39.865Z,8.80
2024-01-27T06:38:07.998Z,7.10
2024-01-27T06:40:36.121Z,7.60
2024-01-27T06:43:09.981Z,7.70
2024-01-27T06:45:40.735Z,5.60
2024-01-27T06:48:09.046Z,6.40
2024-01-27T06:50:37.321Z,6.80
2024-01-27T06:53:05.471Z,8.30
2024-01-27T06:55:33.565Z,7.40
2024-01-27T06:58:01.763Z,5.80
2024-01-27T07:00:29.965Z,8.20
2024-01-27T07:02:59.669Z,6.90
2024-01-27T07:05:27.873Z,9.80
2024-01-27T07:07:56.012Z,9.10
2024-01-27T07:10:24.364Z,7.00
2024-01-27T07:12:52.469Z,8.10
2024-01-27T07:15:23.000Z,6.90
2024-01-27T07:17:51.510Z,11.70
2024-01-27T07:20:19.670Z,8.60
2024-01-27T07:22:48.919Z,6.50
2024-01-27T07:25:17.180Z,8.10
2024-01-27T07:27:45.906Z,8.80
2024-01-27T07:30:16.792Z,6.40
2024-01-27T07:32:45.546Z,7.40
2024-01-27T07:35:13.667Z,11.10
2024-01-27T07:37:41.801Z,9.50
2024-01-27T07:40:10.804Z,9.60
2024-01-27T07:42:39.034Z,7.40
2024-01-27T07:45:07.572Z,7.80
2024-01-27T07:47:36.060Z,9.40
2024-01-27T07:50:04.268Z,8.00
2024-01-27T07:52:32.402Z,8.40
2024-01-27T07:55:00.431Z,7.50
2024-01-27T07:57:29.496Z,8.50
2024-01-27T07:59:57.615Z,8.00
2024-01-27T08:02:27.490Z,11.10
2024-01-27T08:04:55.634Z,7.70
2024-01-27T08:07:24.114Z,11.80
2024-01-27T08:09:52.317Z,10.10
2024-01-27T08:12:20.996Z,8.30
2024-01-27T08:14:49.459Z,9.50
2024-01-27T08:17:17.515Z,11.00
2024-01-27T08:19:45.718Z,8.00
2024-01-27T08:22:13.862Z,8.30
2024-01-27T08:24:42.003Z,8.80
2024-01-27T08:27:10.149Z,9.10
2024-01-27T08:29:38.282Z,8.50
2024-01-27T08:32:06.842Z,7.10
2024-01-27T08:34:35.085Z,10.30
2024-01-27T08:37:03.671Z,10.00
2024-01-27T08:39:32.223Z,9.70
2024-01-27T08:42:00.269Z,8.10
2024-01-27T08:44:28.434Z,8.30
2024-01-27T08:46:59.234Z,10.70
2024-01-27T08:49:29.350Z,9.70
2024-01-27T08:51:57.565Z,8.70
2024-01-27T08:54:25.700Z,7.80
2024-01-27T08:56:53.754Z,8.40
2024-01-27T08:59:22.159Z,9.60
2024-01-27T09:01:50.250Z,8.90
2024-01-27T09:04:18.378Z,7.70
2024-01-27T09:06:47.196Z,8.80
2024-01-27T09:09:15.618Z,10.40
2024-01-27T09:11:44.217Z,11.50
2024-01-27T09:14:12.265Z,9.10
2024-01-27T09:16:41.689Z,8.30
2024-01-27T09:19:09.988Z,9.40
2024-01-27T09:21:38.757Z,7.20
2024-01-27T09:24:07.019Z,6.10
2024-01-27T09:26:35.167Z,7.90
2024-01-27T09:29:03.221Z,7.10
2024-01-27T09:31:31.338Z,6.60
2024-01-27T09:33:59.741Z,6.00
2024-01-27T09:36:29.657Z,11.20
2024-01-27T09:38:57.911Z,7.90
2024-01-27T09:41:33.243Z,11.80
2024-01-27T09:44:04.082Z,6.90
2024-01-27T09:49:04.000Z,14.00
2024-01-27T09:51:32.692Z,8.20
2024-01-27T09:54:00.901Z,6.60
2024-01-27T09:56:29.164Z,8.00
2024-01-27T09:58:57.646Z,7.90
2024-01-27T10:01:28.901Z,7.40
2024-01-27T10:03:58.062Z,8.90
2024-01-27T10:06:26.960Z,8.50
2024-01-27T10:08:56.756Z,7.20
2024-01-27T10:11:25.990Z,10.80
2024-01-27T10:14:00.000Z,5.90
2024-01-27T10:16:29.262Z,5.90
2024-01-27T10:19:04.752Z,7.40
2024-01-27T10:21:33.399Z,8.30
2024-01-27T10:24:02.811Z,6.40
2024-01-27T10:26:34.638Z,9.90
2024-01-27T10:29:03.494Z,8.10
2024-01-27T10:31:33.489Z,7.50
2024-01-27T10:34:06.548Z,6.80
2024-01-27T10:36:46.725Z,8.20
2024-01-27T10:39:25.218Z,4.00
2024-01-27T10:41:53.613Z,5.50
2024-01-27T10:44:22.053Z,6.30
2024-01-27T10:46:51.143Z,6.20
2024-01-27T10:49:20.171Z,5.90
2024-01-27T10:51:59.963Z,6.90
2024-01-27T10:54:29.751Z,8.70
2024-01-27T10:57:00.137Z,6.70
2024-01-27T10:59:32.122Z,8.20
2024-01-27T11:02:00.208Z,6.00
2024-01-27T11:04:29.916Z,7.80
2024-01-27T11:06:58.227Z,5.00
2024-01-27T11:09:27.088Z,7.10
2024-01-27T11:11:55.788Z,5.70
2024-01-27T11:14:24.146Z,6.50
2024-01-27T11:16:59.033Z,5.60
2024-01-27T11:19:28.402Z,6.80
2024-01-27T11:22:04.050Z,6.40
2024-01-27T11:24:32.550Z,6.80
2024-01-27T11:27:07.994Z,5.20
2024-01-27T11:29:37.529Z,6.90
2024-01-27T11:32:06.560Z,5.20
2024-01-27T11:34:45.993Z,7.20
2024-01-27T11:37:16.786Z,10.80
2024-01-27T11:39:44.997Z,7.00
2024-01-27T11:42:14.978Z,7.10
2024-01-27T11:44:43.852Z,9.00
2024-01-27T11:47:19.817Z,7.40
2024-01-27T11:49:56.711Z,7.70
2024-01-27T11:52:26.351Z,9.50
2024-01-27T11:55:01.359Z,8.60
2024-01-27T11:57:29.654Z,7.40
2024-01-27T11:59:58.291Z,7.70
2024-01-27T12:02:26.424Z,10.60
2024-01-27T12:04:55.944Z,6.70
2024-01-27T12:07:24.320Z,7.90
2024-01-27T12:09:52.976Z,7.30
2024-01-27T12:12:21.439Z,7.70
2024-01-27T12:14:51.484Z,7.80
2024-01-27T12:17:21.231Z,8.50
2024-01-27T12:19:54.956Z,6.40
2024-01-27T12:22:24.621Z,6.00
2024-01-27T12:24:53.181Z,8.10
2024-01-27T12:27:23.156Z,7.90
2024-01-27T12:29:51.691Z,9.80
2024-01-27T12:32:20.155Z,10.10
2024-01-27T12:34:49.710Z,8.60
2024-01-27T12:37:18.061Z,9.50
2024-01-27T12:39:46.584Z,7.60
2024-01-27T12:42:14.907Z,9.10
2024-01-27T12:44:43.013Z,8.20
2024-01-27T12:47:11.650Z,8.40
2024-01-27T12:49:40.117Z,8.60
2024-01-27T12:52:08.691Z,7.80
2024-01-27T12:54:36.835Z,9.40
2024-01-27T12:57:07.400Z,9.10
2024-01-27T12:59:35.635Z,9.40
2024-01-27T13:02:03.829Z,8.30
2024-01-27T13:04:31.934Z,7.50
2024-01-27T13:07:01.104Z,6.10
2024-01-27T13:09:29.545Z,9.00
2024-01-27T13:11:57.677Z,7.90
2024-01-27T13:14:25.814Z,8.30
2024-01-27T13:16:55.813Z,7.50
2024-01-27T13:19:24.451Z,8.30
2024-01-27T13:21:52.646Z,9.10
2024-01-27T13:24:21.527Z,7.80
2024-01-27T13:26:49.727Z,6.80
2024-01-27T13:29:17.913Z,7.80
2024-01-27T13:31:46.016Z,7.90
2024-01-27T13:34:14.451Z,7.30
2024-01-27T13:36:42.721Z,10.20
2024-01-27T13:39:11.028Z,5.30
2024-01-27T13:41:39.185Z,7.70
2024-01-27T13:44:07.271Z,6.30
2024-01-27T13:46:35.499Z,7.30
2024-01-27T13:49:04.049Z,6.40
2024-01-27T13:51:32.309Z,9.90
2024-01-27T13:54:00.583Z,8.30
2024-01-27T13:56:33.781Z,5.90
2024-01-27T13:59:01.986Z,5.70
2024-01-27T14:01:30.090Z,7.70
2024-01-27T14:03:58.239Z,7.20
2024-01-27T14:06:26.988Z,8.50
2024-01-27T14:08:55.359Z,11.50
2024-01-27T14:11:23.803Z,7.90
2024-01-27T14:13:51.863Z,8.00
2024-01-27T14:16:21.733Z,9.10
2024-01-27T14:18:50.308Z,7.20
2024-01-27T14:21:18.617Z,10.00
2024-01-27T14:23:46.690Z,8.20
2024-01-27T14:26:17.687Z,8.50
2024-01-27T14:28:46.318Z,7.70
2024-01-27T14:31:15.900Z,8.20
2024-01-27T14:33:44.729Z,9.10
2024-01-27T14:36:13.228Z,10.60
2024-01-27T14:38:42.798Z,8.80
2024-01-27T14:41:14.039Z,8.40
2024-01-27T14:43:42.161Z,9.50
2024-01-27T14:46:10.304Z,10.40
2024-01-27T14:48:38.933Z,9.80
2024-01-27T14:51:08.479Z,10.90
2024-01-27T14:53:37.429Z,11.30
2024-01-27T14:56:05.902Z,10.50
2024-01-27T14:58:34.064Z,7.60
2024-01-27T15:01:02.294Z,8.90
2024-01-27T15:03:30.664Z,11.60
2024-01-27T15:05:59.696Z,10.80
2024-01-27T15:08:28.044Z,10.70
2024-01-27T15:10:56.177Z,9.60
2024-01-27T15:13:25.881Z,8.50
2024-01-27T15:15:54.262Z,9.00
2024-01-27T15:18:23.691Z,6.60
2024-01-27T15:20:52.195Z,9.60
2024-01-27T15:23:24.879Z,8.50
2024-01-27T15:25:53.889Z,9.70
2024-01-27T15:28:22.304Z,8.40
2024-01-27T15:30:50.881Z,9.30
2024-01-27T15:33:19.298Z,8.70
2024-01-27T15:35:47.624Z,8.50
2024-01-27T15:38:15.711Z,9.00
2024-01-27T15:40:43.855Z,9.50
2024-01-27T15:43:12.070Z,9.10
2024-01-27T15:45:40.290Z,9.60
2024-01-27T15:48:09.369Z,11.20
2024-01-27T15:50:37.529Z,12.70
2024-01-27T15:53:05.891Z,11.70
2024-01-27T15:55:34.682Z,14.60
2024-01-27T15:58:03.470Z,11.10
2024-01-27T16:00:31.775Z,12.00
2024-01-27T16:02:59.986Z,11.00
2024-01-27T16:05:28.319Z,10.40
2024-01-27T16:07:56.467Z,10.90
2024-01-27T16:10:24.533Z,9.30
2024-01-27T16:12:52.639Z,10.10
2024-01-27T16:15:20.745Z,10.30
2024-01-27T16:17:48.945Z,9.10
2024-01-27T16:20:17.154Z,11.50
2024-01-27T16:22:45.239Z,10.70
2024-01-27T16:25:13.444Z,10.10
2024-01-27T16:27:41.556Z,9.10
2024-01-27T16:30:10.221Z,8.30
2024-01-27T16:32:38.383Z,10.00
2024-01-27T16:35:07.209Z,9.50
2024-01-27T16:37:35.448Z,8.10
2024-01-27T16:40:04.624Z,9.30
2024-01-27T16:42:33.522Z,11.30
2024-01-27T16:45:01.799Z,7.10
2024-01-27T16:47:29.963Z,7.40
2024-01-27T16:49:58.195Z,10.50
2024-01-27T16:52:26.342Z,7.30
2024-01-27T16:54:54.488Z,6.20
2024-01-27T16:57:22.663Z,9.00
2024-01-27T16:59:50.731Z,8.00
2024-01-27T17:02:18.805Z,6.10
2024-01-27T17:04:50.887Z,7.30
2024-01-27T17:07:19.409Z,9.50
2024-01-27T17:09:47.411Z,7.80
2024-01-27T17:12:15.605Z,5.40
2024-01-27T17:14:44.167Z,8.10
2024-01-27T17:17:12.316Z,6.60
2024-01-27T17:19:40.796Z,9.40
2024-01-27T17:22:08.861Z,6.10
2024-01-27T17:24:37.130Z,7.10
2024-01-27T17:27:07.695Z,7.00
2024-01-27T17:29:36.999Z,7.40
2024-01-27T17:32:05.532Z,7.80
2024-01-27T17:34:35.204Z,10.30
2024-01-27T17:37:03.564Z,6.90
2024-01-27T17:39:31.685Z,8.40
2024-01-27T17:41:59.829Z,10.60
2024-01-27T17:44:28.229Z,8.20
2024-01-27T17:46:56.334Z,8.30
2024-01-27T17:49:24.518Z,7.70
2024-01-27T17:51:53.773Z,7.70
2024-01-27T17:54:21.955Z,6.10
2024-01-27T17:56:54.518Z,7.60
2024-01-27T17:59:23.979Z,9.90
2024-01-27T18:01:52.081Z,8.20
2024-01-27T18:04:20.510Z,9.00
2024-01-27T18:06:50.719Z,7.80
2024-01-27T18:09:19.018Z,6.80
2024-01-27T18:11:47.243Z,7.50
2024-01-27T18:14:15.368Z,7.90
2024-01-27T18:16:44.688Z,6.30
2024-01-27T18:19:13.104Z,7.10
2024-01-27T18:21:41.378Z,9.50
2024-01-27T18:24:09.726Z,8.30
2024-01-27T18:26:37.894Z,8.20
2024-01-27T18:29:05.917Z,8.70
2024-01-27T18:31:35.294Z,9.10
2024-01-27T18:34:04.486Z,11.30
2024-01-27T18:36:32.638Z,10.60
2024-01-27T18:39:01.034Z,9.40
2024-01-27T18:41:29.297Z,11.00
2024-01-27T18:43:57.459Z,9.20
2024-01-27T18:46:25.838Z,9.90
2024-01-27T18:48:53.990Z,8.60
2024-01-27T18:51:22.154Z,9.20
2024-01-27T18:53:50.965Z,11.10
2024-01-27T18:56:19.118Z,8.00
2024-01-27T18:58:47.383Z,9.20
2024-01-27T19:01:15.650Z,8.10
2024-01-27T19:03:44.156Z,7.60
2024-01-27T19:06:14.297Z,8.10
2024-01-27T19:08:42.717Z,8.20
2024-01-27T19:11:10.956Z,7.00
2024-01-27T19:13:39.044Z,9.20
2024-01-27T19:16:09.116Z,9.00
2024-01-27T19:18:37.921Z,7.70
2024-01-27T19:21:06.084Z,7.80
2024-01-27T19:23:34.210Z,9.60
2024-01-27T19:26:02.387Z,8.10
2024-01-27T19:28:30.597Z,7.20
2024-01-27T19:30:58.781Z,9.60
2024-01-27T19:33:27.039Z,8.60
2024-01-27T19:35:55.396Z,9.70
2024-01-27T19:38:23.710Z,10.40
2024-01-27T19:41:02.665Z,8.50
2024-01-27T19:43:42.199Z,7.20
2024-01-27T19:46:11.497Z,8.90
2024-01-27T19:48:39.710Z,8.20
2024-01-27T19:51:08.532Z,8.40
2024-01-27T19:53:36.978Z,8.20
2024-01-27T19:56:09.794Z,10.70
2024-01-27T19:58:38.497Z,7.90
2024-01-27T20:01:06.792Z,7.50
2024-01-27T20:03:35.155Z,9.10
2024-01-27T20:06:05.725Z,10.30
2024-01-27T20:08:34.065Z,7.20
2024-01-27T20:11:02.235Z,9.50
2024-01-27T20:13:30.588Z,9.30
2024-01-27T20:15:58.764Z,7.70
2024-01-27T20:18:27.029Z,11.20
2024-01-27T20:20:55.329Z,7.80
2024-01-27T20:23:23.529Z,8.60
2024-01-27T20:25:52.798Z,9.60
2024-01-27T20:28:23.195Z,10.10
2024-01-27T20:30:51.731Z,8.50
2024-01-27T20:33:23.360Z,8.40
2024-01-27T20:35:55.777Z,8.30
2024-01-27T20:38:24.456Z,8.00
2024-01-27T20:40:52.607Z,8.30
2024-01-27T20:43:20.679Z,9.80
2024-01-27T20:45:48.720Z,9.30
2024-01-27T20:48:21.371Z,7.40
2024-01-27T20:50:52.712Z,7.40
2024-01-27T20:53:21.141Z,9.40
2024-01-27T20:55:52.275Z,11.00
2024-01-27T20:58:20.729Z,10.10
2024-01-27T21:00:50.104Z,9.30
2024-01-27T21:03:19.110Z,9.20
2024-01-27T21:05:47.534Z,9.10
2024-01-27T21:08:15.819Z,8.60
2024-01-27T21:10:44.073Z,9.00
2024-01-27T21:13:12.197Z,9.20
2024-01-27T21:15:40.397Z,8.30
2024-01-27T21:18:08.786Z,10.60
2024-01-27T21:20:37.029Z,9.30
2024-01-27T21:23:06.045Z,9.00
2024-01-27T21:25:34.094Z,8.10
2024-01-27T21:28:02.314Z,8.90
2024-01-27T21:30:32.488Z,8.10
2024-01-27T21:33:00.769Z,8.30
2024-01-27T21:35:28.965Z,9.40
2024-01-27T21:37:56.999Z,8.80
2024-01-27T21:40:25.144Z,9.90
2024-01-27T21:42:53.245Z,7.80
2024-01-27T21:45:22.303Z,7.90
2024-01-27T21:47:50.954Z,9.10
2024-01-27T21:50:19.169Z,8.00
2024-01-27T21:52:49.225Z,7.90
2024-01-27T21:55:17.701Z,7.80
2024-01-27T21:57:45.838Z,8.30
2024-01-27T22:00:14.791Z,7.20
2024-01-27T22:02:42.934Z,9.60
2024-01-27T22:05:13.985Z,10.80
2024-01-27T22:07:42.213Z,7.20
2024-01-27T22:10:11.130Z,7.50
2024-01-27T22:12:39.363Z,8.50
2024-01-27T22:15:08.710Z,7.00
2024-01-27T22:17:38.966Z,7.50
2024-01-27T22:20:08.950Z,6.70
2024-01-27T22:22:40.204Z,8.10
2024-01-27T22:25:09.453Z,7.80
2024-01-27T22:27:39.650Z,7.70
2024-01-27T22:30:14.724Z,8.80
2024-01-27T22:32:43.608Z,8.20
2024-01-27T22:35:11.828Z,8.50
2024-01-27T22:37:39.970Z,8.90
2024-01-27T22:40:09.033Z,6.30
2024-01-27T22:42:37.214Z,7.40
2024-01-27T22:45:05.683Z,6.60
2024-01-27T22:47:34.446Z,7.90
2024-01-27T22:50:05.073Z,8.10
2024-01-27T22:55:01.844Z,8.00
2024-01-27T22:57:31.713Z,8.80
2024-01-27T23:00:00.260Z,7.60
2024-01-27T23:02:29.035Z,7.50
2024-01-27T23:04:57.211Z,13.10
2024-01-27T23:07:25.499Z,7.20
2024-01-27T23:09:53.718Z,8.80
2024-01-27T23:12:21.893Z,7.80
2024-01-27T23:14:50.003Z,8.00
2024-01-27T23:17:18.701Z,6.90
2024-01-27T23:19:47.128Z,8.90
2024-01-27T23:22:15.333Z,7.90
2024-01-27T23:24:44.189Z,7.00
2024-01-27T23:29:57.642Z,8.40
2024-01-27T23:32:25.834Z,11.00
2024-01-27T23:34:54.013Z,8.20
2024-01-27T23:37:22.166Z,8.50
2024-01-27T23:39:50.234Z,7.90
2024-01-27T23:42:18.427Z,9.20
2024-01-27T23:44:46.575Z,8.10
2024-01-27T23:47:15.034Z,9.90
2024-01-27T23:49:43.217Z,9.20
2024-01-27T23:52:12.896Z,7.70
2024-01-27T23:54:41.072Z,8.30
2024-01-27T23:57:09.165Z,8.20
2024-01-27T23:59:37.333Z,8.20
